createdAt,value
2022-10-29T00:02:17.518Z,3.50
2022-10-29T00:08:43.149Z,3.70
2022-10-29T00:15:17.699Z,4.00
2022-10-29T00:21:42.217Z,3.40
2022-10-29T00:27:39.933Z,4.10
2022-10-29T00:33:59.848Z,3.70
2022-10-29T00:40:16.016Z,3.80
2022-10-29T00:46:49.300Z,4.10
2022-10-29T01:06:41.015Z,3.30
2022-10-29T01:12:49.836Z,3.20
2022-10-29T01:19:03.862Z,3.60
2022-10-29T01:25:28.022Z,3.60
2022-10-29T01:38:38.215Z,3.50
2022-10-29T01:45:33.604Z,3.40
2022-10-29T01:52:06.413Z,3.70
2022-10-29T01:58:37.936Z,3.90
2022-10-29T02:05:37.074Z,3.70
2022-10-29T02:19:01.884Z,3.00
2022-10-29T02:25:49.677Z,3.60
2022-10-29T02:32:11.171Z,3.20
2022-10-29T02:52:38.824Z,3.40
2022-10-29T02:59:05.353Z,3.10
2022-10-29T03:05:07.950Z,3.60
2022-10-29T03:11:33.691Z,3.40
2022-10-29T03:17:42.894Z,3.30
2022-10-29T03:24:16.198Z,3.50
2022-10-29T03:30:58.619Z,3.50
2022-10-29T03:37:40.124Z,3.10
2022-10-29T03:44:15.722Z,3.80
2022-10-29T03:50:58.342Z,2.80
2022-10-29T03:57:25.557Z,3.30
2022-10-29T04:03:49.387Z,3.20
2022-10-29T04:10:35.289Z,3.30
2022-10-29T04:30:23.893Z,3.40
2022-10-29T04:36:41.992Z,3.30
2022-10-29T04:43:40.311Z,3.40
2022-10-29T04:50:01.060Z,3.40
2022-10-29T04:56:20.294Z,3.10
2022-10-29T05:02:45.793Z,3.40
2022-10-29T05:08:49.986Z,3.40
2022-10-29T05:15:23.350Z,2.70
2022-10-29T05:21:32.761Z,3.30
2022-10-29T05:27:40.076Z,3.00
2022-10-29T05:34:10.276Z,3.10
2022-10-29T05:53:42.836Z,3.90
2022-10-29T06:00:10.110Z,3.20
2022-10-29T06:06:27.112Z,3.20
2022-10-29T06:12:52.595Z,3.10
2022-10-29T06:19:24.450Z,3.40
2022-10-29T06:32:08.174Z,3.20
2022-10-29T06:38:26.164Z,2.90
2022-10-29T06:44:53.152Z,3.60
2022-10-29T06:51:38.526Z,5.00
2022-10-29T06:58:04.995Z,4.80
2022-10-29T07:10:18.381Z,4.10
2022-10-29T07:16:42.731Z,4.00
2022-10-29T07:22:37.968Z,4.40
2022-10-29T07:29:22.917Z,4.50
2022-10-29T07:35:47.475Z,3.90
2022-10-29T07:42:12.069Z,4.30
2022-10-29T07:48:52.055Z,4.50
2022-10-29T07:55:09.102Z,5.80
2022-10-29T08:01:33.997Z,4.90
2022-10-29T08:07:53.768Z,5.10
2022-10-29T08:14:22.599Z,5.00
2022-10-29T08:20:21.740Z,5.10
2022-10-29T08:26:46.444Z,4.50
2022-10-29T08:33:11.844Z,5.10
2022-10-29T08:39:40.434Z,4.70
2022-10-29T08:46:05.933Z,4.00
2022-10-29T08:52:33.243Z,4.70
2022-10-29T08:59:00.654Z,4.00
2022-10-29T09:05:27.899Z,4.00
2022-10-29T09:12:14.331Z,3.80
2022-10-29T09:18:40.116Z,4.00
2022-10-29T09:25:07.498Z,3.80
2022-10-29T09:31:34.286Z,3.90
2022-10-29T09:37:58.934Z,3.60
2022-10-29T09:44:24.627Z,3.60
2022-10-29T09:50:51.950Z,4.30
2022-10-29T09:57:16.284Z,3.60
2022-10-29T10:03:43.515Z,3.70
2022-10-29T10:10:08.404Z,3.80
2022-10-29T10:16:32.835Z,3.70
2022-10-29T10:22:49.887Z,3.60
2022-10-29T10:29:23.475Z,3.60
2022-10-29T10:35:59.601Z,3.30
2022-10-29T10:42:18.701Z,3.60
2022-10-29T10:48:43.884Z,3.80
2022-10-29T10:55:51.095Z,3.50
2022-10-29T11:02:15.659Z,3.60
2022-10-29T11:08:45.808Z,4.30
2022-10-29T11:15:10.467Z,6.10
2022-10-29T11:22:01.462Z,5.80
2022-10-29T11:35:42.581Z,5.90
2022-10-29T11:42:36.482Z,5.30
2022-10-29T11:49:01.921Z,4.60
2022-10-29T11:55:30.271Z,4.90
2022-10-29T12:02:12.244Z,4.80
2022-10-29T12:08:43.776Z,4.70
2022-10-29T12:28:44.487Z,4.30
2022-10-29T12:35:27.830Z,4.30
2022-10-29T12:42:07.850Z,5.20
2022-10-29T12:48:48.572Z,3.90
2022-10-29T12:55:28.362Z,4.10
2022-10-29T13:02:12.441Z,4.20
2022-10-29T13:09:09.714Z,4.00
2022-10-29T13:15:29.044Z,4.20
2022-10-29T13:21:53.316Z,3.70
2022-10-29T13:28:17.702Z,3.70
2022-10-29T13:34:42.034Z,3.90
2022-10-29T13:41:36.199Z,3.90
2022-10-29T13:48:00.435Z,3.50
2022-10-29T13:54:24.751Z,3.50
2022-10-29T14:00:57.860Z,3.80
2022-10-29T14:07:22.048Z,3.40
2022-10-29T14:14:04.752Z,3.40
2022-10-29T14:20:29.015Z,3.70
2022-10-29T14:26:53.388Z,3.40
2022-10-29T14:33:17.650Z,3.10
2022-10-29T14:39:58.072Z,3.30
2022-10-29T14:46:26.015Z,3.30
2022-10-29T14:53:02.203Z,3.10
2022-10-29T14:59:29.744Z,3.30
2022-10-29T15:06:02.781Z,3.60
2022-10-29T15:12:38.833Z,3.40
2022-10-29T15:19:03.225Z,3.00
2022-10-29T15:25:27.442Z,3.30
2022-10-29T15:32:11.737Z,3.20
2022-10-29T15:38:48.136Z,3.10
2022-10-29T15:45:49.643Z,3.70
2022-10-29T15:52:31.519Z,3.20
2022-10-29T15:59:16.083Z,3.60
2022-10-29T16:05:40.336Z,3.50
2022-10-29T16:12:04.725Z,3.10
2022-10-29T16:18:29.048Z,3.50
2022-10-29T16:25:11.098Z,4.00
2022-10-29T16:31:35.700Z,3.60
2022-10-29T16:37:59.979Z,3.80
2022-10-29T16:44:17.030Z,4.40
2022-10-29T16:51:07.719Z,3.70
2022-10-29T16:57:31.682Z,4.20
2022-10-29T17:03:55.960Z,4.10
2022-10-29T17:10:20.832Z,4.00
2022-10-29T17:16:45.020Z,4.70
2022-10-29T17:23:26.720Z,5.30
2022-10-29T17:29:51.067Z,5.80
2022-10-29T17:36:15.779Z,5.30
2022-10-29T17:42:40.139Z,5.10
2022-10-29T17:49:04.579Z,6.10
2022-10-29T17:55:46.726Z,6.00
2022-10-29T18:02:11.153Z,5.70
2022-10-29T18:08:53.056Z,5.60
2022-10-29T18:15:17.351Z,6.00
2022-10-29T18:21:41.602Z,6.20
2022-10-29T18:28:23.212Z,6.10
2022-10-29T18:35:05.232Z,6.80
2022-10-29T18:41:35.076Z,7.00
2022-10-29T18:47:59.936Z,7.00
2022-10-29T18:54:24.860Z,6.70
2022-10-29T19:00:49.358Z,6.60
2022-10-29T19:07:13.624Z,6.20
2022-10-29T19:13:37.919Z,6.70
2022-10-29T19:20:19.931Z,7.10
2022-10-29T19:26:44.171Z,6.60
2022-10-29T19:33:08.786Z,7.00
2022-10-29T19:39:34.066Z,6.20
2022-10-29T19:46:16.063Z,6.80
2022-10-29T19:52:40.588Z,6.30
2022-10-29T19:59:05.145Z,6.10
2022-10-29T20:05:22.204Z,6.30
2022-10-29T20:11:46.658Z,6.60
2022-10-29T20:18:11.056Z,6.10
2022-10-29T20:24:35.395Z,6.20
2022-10-29T20:31:17.519Z,5.70
2022-10-29T20:37:59.733Z,5.80
2022-10-29T20:44:42.058Z,5.70
2022-10-29T20:51:06.602Z,6.10
2022-10-29T20:57:30.887Z,5.50
2022-10-29T21:03:55.172Z,5.40
2022-10-29T21:10:19.486Z,5.30
2022-10-29T21:16:46.328Z,5.50
2022-10-29T21:23:10.642Z,5.40
2022-10-29T21:29:34.566Z,5.40
2022-10-29T21:35:58.869Z,5.90
2022-10-29T21:42:23.196Z,5.60
2022-10-29T21:48:47.430Z,5.40
2022-10-29T21:55:29.136Z,6.00
2022-10-29T22:01:53.433Z,6.30
2022-10-29T22:08:17.860Z,6.10
2022-10-29T22:14:41.949Z,5.60
2022-10-29T22:21:06.555Z,5.60
2022-10-29T22:27:30.981Z,5.70
2022-10-29T22:34:12.563Z,5.50
2022-10-29T22:40:36.773Z,5.20
2022-10-29T22:47:01.030Z,4.80
2022-10-29T22:53:42.976Z,5.40
2022-10-29T23:00:07.204Z,5.70
2022-10-29T23:06:37.310Z,5.00
2022-10-29T23:13:19.227Z,5.60
2022-10-29T23:19:43.146Z,5.60
2022-10-29T23:26:08.078Z,4.90
2022-10-29T23:32:32.375Z,5.00
2022-10-29T23:38:56.590Z,4.80
2022-10-29T23:45:20.887Z,5.10
2022-10-29T23:51:45.229Z,5.10
2022-10-29T23:58:09.664Z,5.00
